Share

Lamont, WA

Malloy Prairie (KWACHENE4) Elev 2374 ft | 47.50 °N, 117.77 °W | Change Station

Current weather conditions updated 2 seconds ago

Clear
Clear
40.9 °F
Feels Like 38 °F
N
4.0
Wind Variable Wind from WSW
Gusts 10.0 mph
Sunrise 5:53 AM
Sunset 7:47 PM
Moon Waning Gibbous

Today is forecast to be Cooler than yesterday.

Pressure 30.04 in
Visibility 10.0 miles
Clouds Clear
Windchill 38 °F
Dew Point 34 °F
Humidity 77%
Rainfall 0.00 in
Snow Depth Not available.
UV 0 out of 16
Pollen 10.10 out of 12
Air Quality Not available.
Flu Activity Sporadic
METAR KSKA 200658Z AUTO 22016G24KT 10SM CLR 06/01 A3002 RMK AO2 UPB0633E0653 SLP172 P0000 T00600013

More Conditions Fewer Conditions

Pressure 30.04 in
Visibility 10.0 miles
Clouds Clear
Windchill 38 °F
Dew Point 34 °F
Humidity 77%
Rainfall 0.00 in
Snow Depth Not available.
UV 0 out of 16
Pollen 10.10 out of 12
Air Quality Not available.
Flu Activity Sporadic
METAR KSKA 200658Z AUTO 22016G24KT 10SM CLR 06/01 A3002 RMK AO2 UPB0633E0653 SLP172 P0000 T00600013

More Conditions Fewer Conditions

10-Day Weather Forecast

Almanac

Astronomy

Apr. 20, 2014 Rise Set
Actual Time 5:53 AM PDT 7:47 PM PDT
Civil Twilight 5:21 AM PDT 8:20 PM PDT
Nautical Twilight 4:41 AM PDT 9:00 PM PDT
Astronomical Twilight 3:57 AM PDT 9:44 PM PDT
Moon 12:39 AM PDT 10:11 AM PDT
Length of Visible Light 14h 58m
Length of Day
13h 53m
Tomorrow will be 3m 11s longer.
Waning Gibbous, 72% of the Moon is Illuminated
Today
Waning Gibbous
Apr 22
Last Quarter
Apr 29
New
May 6
First Quarter
May 14
Full

Today's Extremes

State Highs State Lows

Community

  • Sunny day at the coast-Cape Arago Lighthouse
    Sunny day at the coast-Cape Arago Lighthouse
  • Cherry Blossoms
    Cherry Blossoms
  • White-Crowned Sparrow
    White-Crowned Sparrow
  • New Day
    New Day
  • Happy Easter!
    Happy Easter!

WunderPhotos

Upload Photos

1,703,084 photos uploaded!

WunderBlogs® & News

Nearby

Snow Depth

Station Depth Elevation
Quartz Peak 29 in 4700 ft
Sourdough Gulch 1 in 4000 ft
Spruce Springs 25 in 5700 ft
Touchet 50 in 5530 ft
Moses Mountain 17 in 5300 ft

Coastal Water Temperatures

Place Temperature
No Stations Reporting

Earthquake Activity

City Distance Mag. Time & Date
No recent earthquake activity has been reported nearby.
Minimum magnitude displayed is 2.5.

Nearby Weather Stations

Station Location Temp. Windchill Dew Point Humidity Wind Precip. Elev Updated Type
MesoWest CHENEY , Cheney, WA 43 °F 43 °F - - North  at  - 0.00 in / hr 2319 ft 11:20 PM PDT MADIS
RAWS CHENEY WA, Cheney, WA 46 °F 41 °F 35 °F 65% SW  at  11 mph 0.00 in / hr 2229 ft 11:28 PM PDT MADIS
Malloy Prairie, Cheney, WA 40.9 °F 38 °F 34 °F 77% WSW  at  4.0 mph 0.00 in / hr 2374 ft 12:49 AM PDT Rapid Fire

Show More Stations Show Fewer Stations

What do you think?

We're not finished. Please let us know what you like, what you don't like, and what you are still missing.